sensor_id;sensor_type;location;lat;lon;timestamp;P1;durP1;ratioP1;P2;durP2;ratioP2
67902;SDS011;54708;43.612;1.568;2023-09-07T00:00:59;2.83;;;2.63;;
67902;SDS011;54708;43.612;1.568;2023-09-07T00:03:29;3.05;;;2.75;;
67902;SDS011;54708;43.612;1.568;2023-09-07T00:05:54;7.53;;;3.78;;
67902;SDS011;54708;43.612;1.568;2023-09-07T00:08:20;6.35;;;3.60;;
67902;SDS011;54708;43.612;1.568;2023-09-07T00:10:45;5.15;;;2.92;;
67902;SDS011;54708;43.612;1.568;2023-09-07T00:13:11;2.85;;;2.63;;
67902;SDS011;54708;43.612;1.568;2023-09-07T00:15:37;3.78;;;2.85;;
67902;SDS011;54708;43.612;1.568;2023-09-07T00:18:03;3.42;;;2.95;;
67902;SDS011;54708;43.612;1.568;2023-09-07T00:20:29;3.90;;;3.20;;
67902;SDS011;54708;43.612;1.568;2023-09-07T00:22:54;4.07;;;3.00;;
67902;SDS011;54708;43.612;1.568;2023-09-07T00:25:20;3.88;;;2.70;;
67902;SDS011;54708;43.612;1.568;2023-09-07T00:27:46;8.20;;;2.95;;
67902;SDS011;54708;43.612;1.568;2023-09-07T00:30:12;3.50;;;2.60;;
67902;SDS011;54708;43.612;1.568;2023-09-07T00:32:38;4.43;;;3.00;;
67902;SDS011;54708;43.612;1.568;2023-09-07T00:35:04;5.85;;;2.85;;
67902;SDS011;54708;43.612;1.568;2023-09-07T00:37:30;5.38;;;2.80;;
67902;SDS011;54708;43.612;1.568;2023-09-07T00:39:56;3.65;;;2.92;;
67902;SDS011;54708;43.612;1.568;2023-09-07T00:42:21;2.95;;;2.60;;
67902;SDS011;54708;43.612;1.568;2023-09-07T00:44:47;4.50;;;3.35;;
67902;SDS011;54708;43.612;1.568;2023-09-07T00:47:13;3.05;;;2.80;;
67902;SDS011;54708;43.612;1.568;2023-09-07T00:49:39;5.68;;;2.95;;
67902;SDS011;54708;43.612;1.568;2023-09-07T00:52:05;7.15;;;3.22;;
67902;SDS011;54708;43.612;1.568;2023-09-07T00:54:31;2.92;;;2.63;;
67902;SDS011;54708;43.612;1.568;2023-09-07T00:56:56;2.80;;;2.58;;
67902;SDS011;54708;43.612;1.568;2023-09-07T00:59:22;5.70;;;3.15;;
67902;SDS011;54708;43.612;1.568;2023-09-07T01:01:48;3.55;;;3.08;;
67902;SDS011;54708;43.612;1.568;2023-09-07T01:04:14;3.63;;;2.78;;
67902;SDS011;54708;43.612;1.568;2023-09-07T01:06:40;3.97;;;2.97;;
67902;SDS011;54708;43.612;1.568;2023-09-07T01:09:10;5.07;;;3.35;;
67902;SDS011;54708;43.612;1.568;2023-09-07T01:11:39;3.28;;;2.97;;
67902;SDS011;54708;43.612;1.568;2023-09-07T01:14:04;4.15;;;3.33;;
67902;SDS011;54708;43.612;1.568;2023-09-07T01:16:30;3.45;;;2.80;;
67902;SDS011;54708;43.612;1.568;2023-09-07T01:18:59;3.65;;;3.05;;
67902;SDS011;54708;43.612;1.568;2023-09-07T01:21:25;4.00;;;3.13;;
67902;SDS011;54708;43.612;1.568;2023-09-07T01:23:51;3.45;;;3.00;;
67902;SDS011;54708;43.612;1.568;2023-09-07T01:26:18;6.45;;;3.33;;
67902;SDS011;54708;43.612;1.568;2023-09-07T01:28:44;3.95;;;3.22;;
67902;SDS011;54708;43.612;1.568;2023-09-07T01:31:09;2.97;;;2.40;;
67902;SDS011;54708;43.612;1.568;2023-09-07T01:33:35;4.22;;;3.00;;
67902;SDS011;54708;43.612;1.568;2023-09-07T01:36:00;3.60;;;2.92;;
67902;SDS011;54708;43.612;1.568;2023-09-07T01:38:26;2.65;;;2.42;;
67902;SDS011;54708;43.612;1.568;2023-09-07T01:40:51;4.32;;;2.78;;
67902;SDS011;54708;43.612;1.568;2023-09-07T01:43:16;4.40;;;3.08;;
67902;SDS011;54708;43.612;1.568;2023-09-07T01:45:42;3.40;;;3.10;;
67902;SDS011;54708;43.612;1.568;2023-09-07T01:48:11;5.32;;;3.10;;
67902;SDS011;54708;43.612;1.568;2023-09-07T01:50:37;6.65;;;3.15;;
67902;SDS011;54708;43.612;1.568;2023-09-07T01:53:03;4.22;;;3.13;;
67902;SDS011;54708;43.612;1.568;2023-09-07T01:55:29;6.10;;;2.90;;
67902;SDS011;54708;43.612;1.568;2023-09-07T01:57:55;6.57;;;3.13;;
67902;SDS011;54708;43.612;1.568;2023-09-07T02:00:21;3.10;;;2.75;;
67902;SDS011;54708;43.612;1.568;2023-09-07T02:02:46;4.05;;;3.25;;
67902;SDS011;54708;43.612;1.568;2023-09-07T02:05:11;2.75;;;2.45;;
67902;SDS011;54708;43.612;1.568;2023-09-07T02:07:37;4.55;;;2.60;;
67902;SDS011;54708;43.612;1.568;2023-09-07T02:10:03;3.10;;;2.80;;
67902;SDS011;54708;43.612;1.568;2023-09-07T02:12:29;3.30;;;2.70;;
67902;SDS011;54708;43.612;1.568;2023-09-07T02:14:55;3.33;;;2.92;;
67902;SDS011;54708;43.612;1.568;2023-09-07T02:17:20;3.38;;;2.67;;
67902;SDS011;54708;43.612;1.568;2023-09-07T02:19:46;3.10;;;2.70;;
67902;SDS011;54708;43.612;1.568;2023-09-07T02:22:11;2.60;;;2.40;;
67902;SDS011;54708;43.612;1.568;2023-09-07T02:24:37;3.10;;;2.63;;
67902;SDS011;54708;43.612;1.568;2023-09-07T02:27:02;4.80;;;3.00;;
67902;SDS011;54708;43.612;1.568;2023-09-07T02:29:28;4.32;;;2.70;;
67902;SDS011;54708;43.612;1.568;2023-09-07T02:31:53;5.97;;;2.65;;
67902;SDS011;54708;43.612;1.568;2023-09-07T02:34:19;3.53;;;2.97;;
67902;SDS011;54708;43.612;1.568;2023-09-07T02:36:44;2.65;;;2.42;;
67902;SDS011;54708;43.612;1.568;2023-09-07T02:39:10;4.50;;;3.17;;
67902;SDS011;54708;43.612;1.568;2023-09-07T02:41:36;16.88;;;3.83;;
67902;SDS011;54708;43.612;1.568;2023-09-07T02:44:02;3.58;;;2.60;;
67902;SDS011;54708;43.612;1.568;2023-09-07T02:46:28;3.15;;;2.67;;
67902;SDS011;54708;43.612;1.568;2023-09-07T02:48:53;2.85;;;2.60;;
67902;SDS011;54708;43.612;1.568;2023-09-07T02:51:22;3.67;;;3.03;;
67902;SDS011;54708;43.612;1.568;2023-09-07T02:53:47;5.50;;;3.58;;
67902;SDS011;54708;43.612;1.568;2023-09-07T02:56:13;5.57;;;3.25;;
67902;SDS011;54708;43.612;1.568;2023-09-07T02:58:38;4.10;;;2.80;;
67902;SDS011;54708;43.612;1.568;2023-09-07T03:01:07;7.60;;;3.38;;
67902;SDS011;54708;43.612;1.568;2023-09-07T03:03:35;4.28;;;3.15;;
67902;SDS011;54708;43.612;1.568;2023-09-07T03:06:10;3.83;;;2.50;;
67902;SDS011;54708;43.612;1.568;2023-09-07T03:08:37;3.13;;;2.75;;
67902;SDS011;54708;43.612;1.568;2023-09-07T03:11:03;5.13;;;3.20;;
67902;SDS011;54708;43.612;1.568;2023-09-07T03:13:29;4.00;;;3.10;;
67902;SDS011;54708;43.612;1.568;2023-09-07T03:15:55;3.60;;;3.30;;
67902;SDS011;54708;43.612;1.568;2023-09-07T03:18:21;5.95;;;3.20;;
67902;SDS011;54708;43.612;1.568;2023-09-07T03:20:46;3.90;;;2.78;;
67902;SDS011;54708;43.612;1.568;2023-09-07T03:23:12;3.22;;;2.92;;
67902;SDS011;54708;43.612;1.568;2023-09-07T03:25:37;3.75;;;3.08;;
67902;SDS011;54708;43.612;1.568;2023-09-07T03:28:03;3.67;;;2.72;;
67902;SDS011;54708;43.612;1.568;2023-09-07T03:30:28;4.28;;;2.78;;
67902;SDS011;54708;43.612;1.568;2023-09-07T03:32:54;4.80;;;2.75;;
67902;SDS011;54708;43.612;1.568;2023-09-07T03:35:19;5.63;;;2.97;;
67902;SDS011;54708;43.612;1.568;2023-09-07T03:37:45;5.00;;;3.03;;
67902;SDS011;54708;43.612;1.568;2023-09-07T03:40:10;3.85;;;2.90;;
67902;SDS011;54708;43.612;1.568;2023-09-07T03:42:36;4.07;;;3.03;;
67902;SDS011;54708;43.612;1.568;2023-09-07T03:45:01;3.80;;;2.95;;
67902;SDS011;54708;43.612;1.568;2023-09-07T03:47:28;2.60;;;2.40;;
67902;SDS011;54708;43.612;1.568;2023-09-07T03:49:54;3.85;;;2.92;;
67902;SDS011;54708;43.612;1.568;2023-09-07T03:52:21;3.08;;;2.75;;
67902;SDS011;54708;43.612;1.568;2023-09-07T03:54:49;5.28;;;2.60;;
67902;SDS011;54708;43.612;1.568;2023-09-07T03:57:15;3.47;;;2.40;;
67902;SDS011;54708;43.612;1.568;2023-09-07T03:59:41;5.03;;;3.30;;
67902;SDS011;54708;43.612;1.568;2023-09-07T04:02:06;3.10;;;2.83;;
67902;SDS011;54708;43.612;1.568;2023-09-07T04:04:31;5.45;;;2.53;;
67902;SDS011;54708;43.612;1.568;2023-09-07T04:06:57;4.18;;;2.78;;
67902;SDS011;54708;43.612;1.568;2023-09-07T04:09:22;4.65;;;2.58;;
67902;SDS011;54708;43.612;1.568;2023-09-07T04:11:47;3.45;;;2.63;;
67902;SDS011;54708;43.612;1.568;2023-09-07T04:14:13;3.75;;;2.50;;
67902;SDS011;54708;43.612;1.568;2023-09-07T04:16:38;6.82;;;2.67;;
67902;SDS011;54708;43.612;1.568;2023-09-07T04:19:04;2.72;;;2.50;;
67902;SDS011;54708;43.612;1.568;2023-09-07T04:21:29;3.70;;;3.17;;
67902;SDS011;54708;43.612;1.568;2023-09-07T04:23:54;6.45;;;2.88;;
67902;SDS011;54708;43.612;1.568;2023-09-07T04:26:20;4.25;;;2.83;;
67902;SDS011;54708;43.612;1.568;2023-09-07T04:28:45;3.33;;;2.70;;
67902;SDS011;54708;43.612;1.568;2023-09-07T04:31:11;2.78;;;2.40;;
67902;SDS011;54708;43.612;1.568;2023-09-07T04:33:36;3.83;;;2.60;;
67902;SDS011;54708;43.612;1.568;2023-09-07T04:36:11;6.10;;;3.17;;
67902;SDS011;54708;43.612;1.568;2023-09-07T04:38:40;3.38;;;3.08;;
67902;SDS011;54708;43.612;1.568;2023-09-07T04:41:09;3.75;;;2.90;;
67902;SDS011;54708;43.612;1.568;2023-09-07T04:43:39;3.78;;;2.53;;
67902;SDS011;54708;43.612;1.568;2023-09-07T04:46:05;3.22;;;2.92;;
67902;SDS011;54708;43.612;1.568;2023-09-07T04:48:31;3.30;;;3.00;;
67902;SDS011;54708;43.612;1.568;2023-09-07T04:51:01;5.22;;;2.80;;
67902;SDS011;54708;43.612;1.568;2023-09-07T04:53:28;6.72;;;2.95;;
67902;SDS011;54708;43.612;1.568;2023-09-07T04:55:54;5.80;;;3.08;;
67902;SDS011;54708;43.612;1.568;2023-09-07T04:58:20;3.38;;;2.70;;
67902;SDS011;54708;43.612;1.568;2023-09-07T05:00:45;3.95;;;2.97;;
67902;SDS011;54708;43.612;1.568;2023-09-07T05:03:11;5.88;;;3.17;;
67902;SDS011;54708;43.612;1.568;2023-09-07T05:05:37;4.15;;;3.42;;
67902;SDS011;54708;43.612;1.568;2023-09-07T05:08:03;5.97;;;3.28;;
67902;SDS011;54708;43.612;1.568;2023-09-07T05:10:31;3.15;;;2.63;;
67902;SDS011;54708;43.612;1.568;2023-09-07T05:12:58;3.22;;;2.70;;
67902;SDS011;54708;43.612;1.568;2023-09-07T05:15:24;3.95;;;2.88;;
67902;SDS011;54708;43.612;1.568;2023-09-07T05:17:49;3.85;;;3.35;;
67902;SDS011;54708;43.612;1.568;2023-09-07T05:20:14;3.35;;;2.83;;
67902;SDS011;54708;43.612;1.568;2023-09-07T05:22:40;2.83;;;2.63;;
67902;SDS011;54708;43.612;1.568;2023-09-07T05:25:06;7.68;;;3.00;;
67902;SDS011;54708;43.612;1.568;2023-09-07T05:27:33;3.17;;;2.60;;
67902;SDS011;54708;43.612;1.568;2023-09-07T05:29:59;2.92;;;2.55;;
67902;SDS011;54708;43.612;1.568;2023-09-07T05:32:24;3.95;;;2.78;;
67902;SDS011;54708;43.612;1.568;2023-09-07T05:34:50;2.78;;;2.58;;
67902;SDS011;54708;43.612;1.568;2023-09-07T05:37:15;3.20;;;2.75;;
67902;SDS011;54708;43.612;1.568;2023-09-07T05:39:40;3.78;;;2.60;;
67902;SDS011;54708;43.612;1.568;2023-09-07T05:42:06;3.88;;;2.83;;
67902;SDS011;54708;43.612;1.568;2023-09-07T05:44:31;4.63;;;2.58;;
67902;SDS011;54708;43.612;1.568;2023-09-07T05:46:57;2.47;;;2.28;;
67902;SDS011;54708;43.612;1.568;2023-09-07T05:49:23;4.47;;;2.90;;
67902;SDS011;54708;43.612;1.568;2023-09-07T05:51:49;6.80;;;3.50;;
67902;SDS011;54708;43.612;1.568;2023-09-07T05:54:14;4.10;;;3.13;;
67902;SDS011;54708;43.612;1.568;2023-09-07T05:56:39;6.20;;;3.63;;
67902;SDS011;54708;43.612;1.568;2023-09-07T05:59:05;3.72;;;2.95;;
67902;SDS011;54708;43.612;1.568;2023-09-07T06:01:30;3.47;;;2.72;;
67902;SDS011;54708;43.612;1.568;2023-09-07T06:03:56;4.85;;;2.88;;
67902;SDS011;54708;43.612;1.568;2023-09-07T06:06:23;2.58;;;2.38;;
67902;SDS011;54708;43.612;1.568;2023-09-07T06:08:48;4.65;;;2.72;;
67902;SDS011;54708;43.612;1.568;2023-09-07T06:11:14;2.97;;;2.65;;
67902;SDS011;54708;43.612;1.568;2023-09-07T06:13:39;3.75;;;2.92;;
67902;SDS011;54708;43.612;1.568;2023-09-07T06:16:04;5.55;;;2.75;;
67902;SDS011;54708;43.612;1.568;2023-09-07T06:18:30;6.15;;;3.47;;
67902;SDS011;54708;43.612;1.568;2023-09-07T06:20:55;4.60;;;3.10;;
67902;SDS011;54708;43.612;1.568;2023-09-07T06:23:20;3.40;;;2.70;;
67902;SDS011;54708;43.612;1.568;2023-09-07T06:25:46;2.75;;;2.45;;
67902;SDS011;54708;43.612;1.568;2023-09-07T06:28:12;3.45;;;2.90;;
67902;SDS011;54708;43.612;1.568;2023-09-07T06:30:38;2.95;;;2.40;;
67902;SDS011;54708;43.612;1.568;2023-09-07T06:33:03;4.60;;;2.60;;
67902;SDS011;54708;43.612;1.568;2023-09-07T06:35:29;2.80;;;2.33;;
67902;SDS011;54708;43.612;1.568;2023-09-07T06:37:55;3.17;;;2.88;;
67902;SDS011;54708;43.612;1.568;2023-09-07T06:40:21;5.53;;;2.40;;
67902;SDS011;54708;43.612;1.568;2023-09-07T06:42:46;3.53;;;2.55;;
67902;SDS011;54708;43.612;1.568;2023-09-07T06:45:12;2.65;;;2.45;;
67902;SDS011;54708;43.612;1.568;2023-09-07T06:47:37;4.00;;;3.25;;
67902;SDS011;54708;43.612;1.568;2023-09-07T06:50:03;3.88;;;2.75;;
67902;SDS011;54708;43.612;1.568;2023-09-07T06:52:29;6.03;;;2.63;;
67902;SDS011;54708;43.612;1.568;2023-09-07T06:54:55;5.65;;;2.80;;
67902;SDS011;54708;43.612;1.568;2023-09-07T06:57:20;6.07;;;2.85;;
67902;SDS011;54708;43.612;1.568;2023-09-07T06:59:46;5.90;;;2.80;;
67902;SDS011;54708;43.612;1.568;2023-09-07T07:02:11;5.63;;;2.47;;
67902;SDS011;54708;43.612;1.568;2023-09-07T07:04:37;5.57;;;2.60;;
67902;SDS011;54708;43.612;1.568;2023-09-07T07:07:02;5.80;;;3.05;;
67902;SDS011;54708;43.612;1.568;2023-09-07T07:09:32;2.88;;;2.28;;
67902;SDS011;54708;43.612;1.568;2023-09-07T07:12:01;6.88;;;2.70;;
67902;SDS011;54708;43.612;1.568;2023-09-07T07:14:27;4.97;;;2.10;;
67902;SDS011;54708;43.612;1.568;2023-09-07T07:16:52;4.57;;;3.03;;
67902;SDS011;54708;43.612;1.568;2023-09-07T07:19:18;4.88;;;2.10;;
67902;SDS011;54708;43.612;1.568;2023-09-07T07:21:43;2.50;;;2.30;;
67902;SDS011;54708;43.612;1.568;2023-09-07T07:24:09;5.60;;;2.53;;
67902;SDS011;54708;43.612;1.568;2023-09-07T07:26:35;4.90;;;2.63;;
67902;SDS011;54708;43.612;1.568;2023-09-07T07:29:01;5.65;;;2.70;;
67902;SDS011;54708;43.612;1.568;2023-09-07T07:31:28;2.10;;;2.00;;
67902;SDS011;54708;43.612;1.568;2023-09-07T07:33:54;2.30;;;2.10;;
67902;SDS011;54708;43.612;1.568;2023-09-07T07:36:20;3.25;;;1.95;;
67902;SDS011;54708;43.612;1.568;2023-09-07T07:38:46;6.47;;;2.65;;
67902;SDS011;54708;43.612;1.568;2023-09-07T07:41:11;6.43;;;2.67;;
67902;SDS011;54708;43.612;1.568;2023-09-07T07:43:36;3.28;;;2.33;;
67902;SDS011;54708;43.612;1.568;2023-09-07T07:46:02;3.42;;;1.90;;
67902;SDS011;54708;43.612;1.568;2023-09-07T07:48:27;4.10;;;2.55;;
67902;SDS011;54708;43.612;1.568;2023-09-07T07:50:54;15.07;;;2.88;;
67902;SDS011;54708;43.612;1.568;2023-09-07T07:53:20;2.28;;;1.98;;
67902;SDS011;54708;43.612;1.568;2023-09-07T07:55:45;2.90;;;2.08;;
67902;SDS011;54708;43.612;1.568;2023-09-07T07:58:11;5.32;;;2.05;;
67902;SDS011;54708;43.612;1.568;2023-09-07T08:00:37;4.47;;;2.28;;
67902;SDS011;54708;43.612;1.568;2023-09-07T08:03:03;3.33;;;2.28;;
67902;SDS011;54708;43.612;1.568;2023-09-07T08:05:31;4.68;;;2.00;;
67902;SDS011;54708;43.612;1.568;2023-09-07T08:07:56;4.18;;;2.38;;
67902;SDS011;54708;43.612;1.568;2023-09-07T08:10:22;4.20;;;1.98;;
67902;SDS011;54708;43.612;1.568;2023-09-07T08:12:47;6.15;;;2.17;;
67902;SDS011;54708;43.612;1.568;2023-09-07T08:15:13;4.00;;;2.20;;
67902;SDS011;54708;43.612;1.568;2023-09-07T08:17:39;3.00;;;1.92;;
67902;SDS011;54708;43.612;1.568;2023-09-07T08:20:05;4.65;;;2.30;;
67902;SDS011;54708;43.612;1.568;2023-09-07T08:22:33;5.63;;;2.45;;
67902;SDS011;54708;43.612;1.568;2023-09-07T08:25:01;2.47;;;2.00;;
67902;SDS011;54708;43.612;1.568;2023-09-07T08:27:27;2.67;;;2.03;;
67902;SDS011;54708;43.612;1.568;2023-09-07T08:29:52;5.00;;;2.03;;
67902;SDS011;54708;43.612;1.568;2023-09-07T08:32:18;2.80;;;1.85;;
67902;SDS011;54708;43.612;1.568;2023-09-07T08:34:44;2.78;;;2.10;;
67902;SDS011;54708;43.612;1.568;2023-09-07T08:37:09;3.60;;;1.90;;
67902;SDS011;54708;43.612;1.568;2023-09-07T08:39:35;2.70;;;2.00;;
67902;SDS011;54708;43.612;1.568;2023-09-07T08:42:01;2.92;;;2.00;;
67902;SDS011;54708;43.612;1.568;2023-09-07T08:44:27;3.22;;;1.88;;
67902;SDS011;54708;43.612;1.568;2023-09-07T08:46:53;2.60;;;2.05;;
67902;SDS011;54708;43.612;1.568;2023-09-07T08:49:20;6.13;;;1.80;;
67902;SDS011;54708;43.612;1.568;2023-09-07T08:51:45;2.13;;;1.65;;
67902;SDS011;54708;43.612;1.568;2023-09-07T08:54:12;5.32;;;1.98;;
67902;SDS011;54708;43.612;1.568;2023-09-07T08:56:37;3.80;;;2.05;;
67902;SDS011;54708;43.612;1.568;2023-09-07T08:59:03;3.42;;;2.05;;
67902;SDS011;54708;43.612;1.568;2023-09-07T09:01:29;3.20;;;2.03;;
67902;SDS011;54708;43.612;1.568;2023-09-07T09:03:56;2.65;;;1.70;;
67902;SDS011;54708;43.612;1.568;2023-09-07T09:06:22;4.85;;;1.67;;
67902;SDS011;54708;43.612;1.568;2023-09-07T09:08:48;9.80;;;1.83;;
67902;SDS011;54708;43.612;1.568;2023-09-07T09:11:23;3.45;;;1.83;;
67902;SDS011;54708;43.612;1.568;2023-09-07T09:13:50;3.30;;;1.77;;
67902;SDS011;54708;43.612;1.568;2023-09-07T09:16:17;3.03;;;1.90;;
67902;SDS011;54708;43.612;1.568;2023-09-07T09:18:49;1.77;;;1.63;;
67902;SDS011;54708;43.612;1.568;2023-09-07T09:21:26;2.33;;;1.90;;
67902;SDS011;54708;43.612;1.568;2023-09-07T09:23:53;6.25;;;2.10;;
67902;SDS011;54708;43.612;1.568;2023-09-07T09:26:20;4.30;;;1.80;;
67902;SDS011;54708;43.612;1.568;2023-09-07T09:28:46;2.30;;;1.70;;
67902;SDS011;54708;43.612;1.568;2023-09-07T09:31:12;2.20;;;1.73;;
67902;SDS011;54708;43.612;1.568;2023-09-07T09:33:38;5.20;;;1.73;;
67902;SDS011;54708;43.612;1.568;2023-09-07T09:36:05;3.95;;;1.50;;
67902;SDS011;54708;43.612;1.568;2023-09-07T09:38:31;7.88;;;1.80;;
67902;SDS011;54708;43.612;1.568;2023-09-07T09:40:57;8.35;;;2.25;;
67902;SDS011;54708;43.612;1.568;2023-09-07T09:43:23;3.95;;;2.15;;
67902;SDS011;54708;43.612;1.568;2023-09-07T09:45:50;1.70;;;1.40;;
67902;SDS011;54708;43.612;1.568;2023-09-07T09:48:21;3.20;;;1.73;;
67902;SDS011;54708;43.612;1.568;2023-09-07T09:50:47;8.13;;;2.40;;
67902;SDS011;54708;43.612;1.568;2023-09-07T09:53:14;5.97;;;1.98;;
67902;SDS011;54708;43.612;1.568;2023-09-07T09:55:46;5.47;;;1.65;;
67902;SDS011;54708;43.612;1.568;2023-09-07T09:58:17;1.88;;;1.70;;
67902;SDS011;54708;43.612;1.568;2023-09-07T10:00:43;2.00;;;1.80;;
67902;SDS011;54708;43.612;1.568;2023-09-07T10:03:17;3.75;;;1.75;;
67902;SDS011;54708;43.612;1.568;2023-09-07T10:05:48;3.80;;;2.00;;
67902;SDS011;54708;43.612;1.568;2023-09-07T10:08:14;2.92;;;2.42;;
67902;SDS011;54708;43.612;1.568;2023-09-07T10:10:42;5.65;;;2.60;;
67902;SDS011;54708;43.612;1.568;2023-09-07T10:13:08;4.47;;;2.55;;
67902;SDS011;54708;43.612;1.568;2023-09-07T10:15:33;4.28;;;1.77;;
67902;SDS011;54708;43.612;1.568;2023-09-07T10:20:55;2.17;;;1.70;;
67902;SDS011;54708;43.612;1.568;2023-09-07T10:23:23;2.58;;;1.95;;
67902;SDS011;54708;43.612;1.568;2023-09-07T10:26:10;2.50;;;1.70;;
67902;SDS011;54708;43.612;1.568;2023-09-07T10:28:37;6.00;;;1.90;;
67902;SDS011;54708;43.612;1.568;2023-09-07T10:31:03;2.15;;;1.73;;
67902;SDS011;54708;43.612;1.568;2023-09-07T10:33:31;3.35;;;2.08;;
67902;SDS011;54708;43.612;1.568;2023-09-07T10:36:00;2.35;;;2.15;;
67902;SDS011;54708;43.612;1.568;2023-09-07T10:38:26;6.13;;;2.22;;
67902;SDS011;54708;43.612;1.568;2023-09-07T10:40:59;3.35;;;2.08;;
67902;SDS011;54708;43.612;1.568;2023-09-07T10:43:26;4.50;;;2.17;;
67902;SDS011;54708;43.612;1.568;2023-09-07T10:45:53;3.90;;;1.90;;
67902;SDS011;54708;43.612;1.568;2023-09-07T10:48:22;3.97;;;2.17;;
67902;SDS011;54708;43.612;1.568;2023-09-07T10:50:48;2.53;;;1.70;;
67902;SDS011;54708;43.612;1.568;2023-09-07T10:53:14;2.55;;;2.35;;
67902;SDS011;54708;43.612;1.568;2023-09-07T10:55:40;3.35;;;1.98;;
67902;SDS011;54708;43.612;1.568;2023-09-07T10:58:08;5.80;;;2.83;;
67902;SDS011;54708;43.612;1.568;2023-09-07T11:00:35;6.18;;;2.38;;
67902;SDS011;54708;43.612;1.568;2023-09-07T11:03:06;3.15;;;2.00;;
67902;SDS011;54708;43.612;1.568;2023-09-07T11:05:33;3.05;;;2.00;;
67902;SDS011;54708;43.612;1.568;2023-09-07T11:08:01;4.80;;;2.80;;
67902;SDS011;54708;43.612;1.568;2023-09-07T11:10:27;4.35;;;1.92;;
67902;SDS011;54708;43.612;1.568;2023-09-07T11:12:53;3.28;;;2.00;;
67902;SDS011;54708;43.612;1.568;2023-09-07T11:15:19;7.57;;;2.35;;
67902;SDS011;54708;43.612;1.568;2023-09-07T11:17:44;10.00;;;2.40;;
67902;SDS011;54708;43.612;1.568;2023-09-07T11:20:11;3.35;;;1.92;;
67902;SDS011;54708;43.612;1.568;2023-09-07T11:22:36;8.45;;;2.58;;
67902;SDS011;54708;43.612;1.568;2023-09-07T11:25:04;4.03;;;2.17;;
67902;SDS011;54708;43.612;1.568;2023-09-07T11:27:31;2.90;;;1.88;;
67902;SDS011;54708;43.612;1.568;2023-09-07T11:29:56;3.92;;;2.17;;
67902;SDS011;54708;43.612;1.568;2023-09-07T11:32:22;2.45;;;2.25;;
67902;SDS011;54708;43.612;1.568;2023-09-07T11:34:49;1.98;;;1.77;;
67902;SDS011;54708;43.612;1.568;2023-09-07T11:37:16;3.83;;;2.00;;
67902;SDS011;54708;43.612;1.568;2023-09-07T11:39:43;3.28;;;1.73;;
67902;SDS011;54708;43.612;1.568;2023-09-07T11:42:08;4.38;;;2.75;;
67902;SDS011;54708;43.612;1.568;2023-09-07T11:44:34;4.13;;;1.90;;
67902;SDS011;54708;43.612;1.568;2023-09-07T11:47:00;6.00;;;2.63;;
67902;SDS011;54708;43.612;1.568;2023-09-07T11:49:26;6.53;;;3.60;;
67902;SDS011;54708;43.612;1.568;2023-09-07T11:51:51;6.70;;;2.38;;
67902;SDS011;54708;43.612;1.568;2023-09-07T11:54:16;2.97;;;2.13;;
67902;SDS011;54708;43.612;1.568;2023-09-07T11:56:42;3.85;;;2.40;;
67902;SDS011;54708;43.612;1.568;2023-09-07T11:59:10;5.40;;;2.65;;
67902;SDS011;54708;43.612;1.568;2023-09-07T12:01:36;6.15;;;2.47;;
67902;SDS011;54708;43.612;1.568;2023-09-07T12:04:03;7.40;;;2.40;;
67902;SDS011;54708;43.612;1.568;2023-09-07T12:06:29;7.60;;;2.28;;
67902;SDS011;54708;43.612;1.568;2023-09-07T12:09:02;6.40;;;2.30;;
67902;SDS011;54708;43.612;1.568;2023-09-07T12:11:31;4.10;;;2.38;;
67902;SDS011;54708;43.612;1.568;2023-09-07T12:13:57;5.45;;;2.38;;
67902;SDS011;54708;43.612;1.568;2023-09-07T12:16:23;4.50;;;2.22;;
67902;SDS011;54708;43.612;1.568;2023-09-07T12:18:49;6.90;;;2.15;;
67902;SDS011;54708;43.612;1.568;2023-09-07T12:21:15;2.97;;;2.53;;
67902;SDS011;54708;43.612;1.568;2023-09-07T12:23:40;6.30;;;2.92;;
67902;SDS011;54708;43.612;1.568;2023-09-07T12:26:05;4.90;;;2.72;;
67902;SDS011;54708;43.612;1.568;2023-09-07T12:28:31;3.15;;;1.90;;
67902;SDS011;54708;43.612;1.568;2023-09-07T12:30:57;4.00;;;2.13;;
67902;SDS011;54708;43.612;1.568;2023-09-07T12:33:23;7.30;;;2.42;;
67902;SDS011;54708;43.612;1.568;2023-09-07T12:35:49;3.92;;;2.65;;
67902;SDS011;54708;43.612;1.568;2023-09-07T12:38:14;3.72;;;2.03;;
67902;SDS011;54708;43.612;1.568;2023-09-07T12:40:43;5.38;;;2.55;;
67902;SDS011;54708;43.612;1.568;2023-09-07T12:43:09;6.78;;;2.35;;
67902;SDS011;54708;43.612;1.568;2023-09-07T12:45:34;8.15;;;2.65;;
67902;SDS011;54708;43.612;1.568;2023-09-07T12:47:59;5.65;;;2.38;;
67902;SDS011;54708;43.612;1.568;2023-09-07T12:50:26;9.73;;;2.63;;
67902;SDS011;54708;43.612;1.568;2023-09-07T12:52:52;4.85;;;2.58;;
67902;SDS011;54708;43.612;1.568;2023-09-07T12:55:17;2.42;;;1.58;;
67902;SDS011;54708;43.612;1.568;2023-09-07T12:57:43;5.85;;;2.58;;
67902;SDS011;54708;43.612;1.568;2023-09-07T13:00:09;5.10;;;2.28;;
67902;SDS011;54708;43.612;1.568;2023-09-07T13:02:36;3.65;;;2.60;;
67902;SDS011;54708;43.612;1.568;2023-09-07T13:05:01;11.70;;;2.28;;
67902;SDS011;54708;43.612;1.568;2023-09-07T13:07:30;5.22;;;2.65;;
67902;SDS011;54708;43.612;1.568;2023-09-07T13:09:57;6.68;;;2.83;;
67902;SDS011;54708;43.612;1.568;2023-09-07T13:12:23;7.63;;;2.55;;
67902;SDS011;54708;43.612;1.568;2023-09-07T13:14:48;6.03;;;2.58;;
67902;SDS011;54708;43.612;1.568;2023-09-07T13:17:13;8.95;;;3.25;;
67902;SDS011;54708;43.612;1.568;2023-09-07T13:19:39;6.93;;;2.15;;
67902;SDS011;54708;43.612;1.568;2023-09-07T13:22:05;5.47;;;2.65;;
67902;SDS011;54708;43.612;1.568;2023-09-07T13:24:32;4.38;;;2.25;;
67902;SDS011;54708;43.612;1.568;2023-09-07T13:26:58;6.25;;;1.90;;
67902;SDS011;54708;43.612;1.568;2023-09-07T13:29:23;6.80;;;2.25;;
67902;SDS011;54708;43.612;1.568;2023-09-07T13:31:49;5.68;;;2.35;;
67902;SDS011;54708;43.612;1.568;2023-09-07T13:34:17;7.53;;;2.13;;
67902;SDS011;54708;43.612;1.568;2023-09-07T13:36:43;8.00;;;3.40;;
67902;SDS011;54708;43.612;1.568;2023-09-07T13:39:08;6.13;;;1.83;;
67902;SDS011;54708;43.612;1.568;2023-09-07T13:41:33;3.83;;;2.45;;
67902;SDS011;54708;43.612;1.568;2023-09-07T13:43:59;3.95;;;2.38;;
67902;SDS011;54708;43.612;1.568;2023-09-07T13:46:25;2.65;;;2.40;;
67902;SDS011;54708;43.612;1.568;2023-09-07T13:48:50;4.88;;;2.28;;
67902;SDS011;54708;43.612;1.568;2023-09-07T13:51:16;6.05;;;2.40;;
67902;SDS011;54708;43.612;1.568;2023-09-07T13:53:41;4.90;;;2.10;;
67902;SDS011;54708;43.612;1.568;2023-09-07T13:56:07;6.95;;;2.83;;
67902;SDS011;54708;43.612;1.568;2023-09-07T13:58:32;8.13;;;2.45;;
67902;SDS011;54708;43.612;1.568;2023-09-07T14:00:57;6.28;;;2.63;;
67902;SDS011;54708;43.612;1.568;2023-09-07T14:03:23;6.47;;;1.83;;
67902;SDS011;54708;43.612;1.568;2023-09-07T14:05:48;7.15;;;2.25;;
67902;SDS011;54708;43.612;1.568;2023-09-07T14:08:13;5.93;;;2.25;;
67902;SDS011;54708;43.612;1.568;2023-09-07T14:10:39;5.78;;;2.33;;
67902;SDS011;54708;43.612;1.568;2023-09-07T14:13:04;4.65;;;2.33;;
67902;SDS011;54708;43.612;1.568;2023-09-07T14:15:30;8.75;;;2.53;;
67902;SDS011;54708;43.612;1.568;2023-09-07T14:17:56;3.97;;;1.67;;
67902;SDS011;54708;43.612;1.568;2023-09-07T14:20:22;2.92;;;1.77;;
67902;SDS011;54708;43.612;1.568;2023-09-07T14:22:47;3.90;;;1.70;;
67902;SDS011;54708;43.612;1.568;2023-09-07T14:25:13;2.33;;;1.40;;
67902;SDS011;54708;43.612;1.568;2023-09-07T14:27:38;7.82;;;2.10;;
67902;SDS011;54708;43.612;1.568;2023-09-07T14:30:04;7.93;;;2.33;;
67902;SDS011;54708;43.612;1.568;2023-09-07T14:32:30;5.95;;;2.00;;
67902;SDS011;54708;43.612;1.568;2023-09-07T14:34:56;2.47;;;1.75;;
67902;SDS011;54708;43.612;1.568;2023-09-07T14:37:21;6.22;;;1.77;;
67902;SDS011;54708;43.612;1.568;2023-09-07T14:39:46;3.00;;;1.70;;
67902;SDS011;54708;43.612;1.568;2023-09-07T14:42:12;5.07;;;1.75;;
67902;SDS011;54708;43.612;1.568;2023-09-07T14:44:41;3.90;;;2.15;;